Time;durP1;ratioP1;P1;durP2;ratioP2;P2;SDS_P1;SDS_P2;PMS_P1;PMS_P2;Temp;Humidity;BMP_temperature;BMP_pressure;BME280_temperature;BME280_humidity;BME280_pressure;Samples;Min_cycle;Max_cycle;Signal;HPM_P1;HPM_P2
2021/08/10 00:02:08;;;;;;;1.52;1.10;;;14.20;99.90;;;;;;4992011;28;20215;-84
2021/08/10 00:04:34;;;;;;;0.88;0.85;;;14.20;99.90;;;;;;5008177;28;20185;-85
2021/08/10 00:06:59;;;;;;;2.00;0.90;;;14.20;99.90;;;;;;4991402;28;20231;-84
2021/08/10 00:09:25;;;;;;;0.82;0.80;;;14.10;99.90;;;;;;4990643;28;20184;-82
2021/08/10 00:11:50;;;;;;;0.93;0.82;;;14.00;99.90;;;;;;4991854;28;20706;-80
2021/08/10 00:14:16;;;;;;;1.65;0.73;;;14.00;99.90;;;;;;4990999;28;21132;-82
2021/08/10 00:16:42;;;;;;;1.45;1.00;;;14.00;99.90;;;;;;4991972;28;20268;-85
2021/08/10 00:19:08;;;;;;;1.17;0.90;;;14.00;99.90;;;;;;4993240;28;20650;-85
2021/08/10 00:21:34;;;;;;;0.60;0.60;;;13.90;99.90;;;;;;4992235;28;20184;-84
2021/08/10 00:24:00;;;;;;;1.55;0.90;;;13.90;99.90;;;;;;4991077;28;20187;-84
2021/08/10 00:26:25;;;;;;;0.60;0.52;;;13.90;99.90;;;;;;4991247;28;20271;-85
2021/08/10 00:28:51;;;;;;;1.27;0.90;;;13.80;99.90;;;;;;4991690;28;20208;-83
2021/08/10 00:31:17;;;;;;;1.95;1.10;;;13.80;99.90;;;;;;4991528;28;20622;-84
2021/08/10 00:33:43;;;;;;;0.70;0.60;;;13.80;99.90;;;;;;4991597;28;20195;-85
2021/08/10 00:36:12;;;;;;;1.10;1.00;;;13.80;99.90;;;;;;4992881;28;20245;-85
2021/08/10 00:38:38;;;;;;;0.95;0.75;;;;;;;;;;4990995;28;20188;-83
2021/08/10 00:41:04;;;;;;;1.10;1.00;;;13.80;99.90;;;;;;4992344;28;20218;-82
2021/08/10 00:43:34;;;;;;;1.05;0.93;;;13.80;99.90;;;;;;4990997;28;20624;-84
2021/08/10 00:46:02;;;;;;;0.95;0.70;;;13.70;99.90;;;;;;4990446;28;20781;-85
2021/08/10 00:48:28;;;;;;;0.90;0.80;;;13.70;99.90;;;;;;4990031;28;20200;-82
2021/08/10 00:50:53;;;;;;;2.63;1.00;;;13.70;99.90;;;;;;4990546;28;20212;-85
2021/08/10 00:53:19;;;;;;;1.00;0.90;;;13.70;99.90;;;;;;5006401;28;20188;-82
2021/08/10 00:55:45;;;;;;;2.38;0.90;;;13.70;99.90;;;;;;4990714;28;20184;-82
2021/08/10 00:58:13;;;;;;;1.08;0.80;;;13.70;99.90;;;;;;4990042;28;20572;-84
2021/08/10 01:00:38;;;;;;;2.38;1.17;;;13.60;99.90;;;;;;4990105;28;20760;-84
2021/08/10 01:03:04;;;;;;;0.73;0.70;;;13.60;99.90;;;;;;4988765;28;20291;-80
2021/08/10 01:05:31;;;;;;;1.58;1.20;;;13.50;99.90;;;;;;4986677;28;20255;-85
2021/08/10 01:08:13;;;;;;;0.85;0.73;;;13.60;99.90;;;;;;4991355;28;20272;-83
2021/08/10 01:10:50;;;;;;;1.05;0.80;;;13.60;99.90;;;;;;4989697;28;20261;-82
2021/08/10 01:13:38;;;;;;;0.93;0.70;;;13.50;99.90;;;;;;4989621;28;20286;-85
2021/08/10 01:16:48;;;;;;;1.88;0.73;;;13.50;99.90;;;;;;4989642;28;20208;-84
2021/08/10 01:19:34;;;;;;;1.23;0.88;;;13.30;99.90;;;;;;4982007;28;20203;-85
2021/08/10 01:22:02;;;;;;;0.80;0.70;;;13.30;99.90;;;;;;4989911;28;20279;-79
2021/08/10 01:24:44;;;;;;;2.05;0.80;;;13.10;99.90;;;;;;4988821;28;20199;-84
2021/08/10 01:27:37;;;;;;;3.13;0.77;;;12.90;99.90;;;;;;4989103;28;20224;-79
2021/08/10 01:30:25;;;;;;;1.05;0.80;;;12.80;99.90;;;;;;4986129;28;21153;-80
2021/08/10 01:32:52;;;;;;;2.97;1.05;;;12.60;99.90;;;;;;5002481;28;20294;-81
2021/08/10 01:35:19;;;;;;;0.70;0.70;;;12.60;99.90;;;;;;4986156;28;20666;-79
2021/08/10 01:37:54;;;;;;;1.52;0.90;;;12.50;99.90;;;;;;4985321;28;20204;-81
2021/08/10 01:40:24;;;;;;;1.20;0.93;;;12.50;99.90;;;;;;4986140;28;20246;-81
2021/08/10 01:42:51;;;;;;;1.00;0.82;;;12.50;99.90;;;;;;4987966;28;20295;-81
2021/08/10 01:45:17;;;;;;;1.55;0.77;;;12.40;99.90;;;;;;4986887;28;20586;-80
2021/08/10 01:47:47;;;;;;;1.25;0.88;;;12.40;99.90;;;;;;4987839;28;20207;-83
2021/08/10 01:50:13;;;;;;;0.93;0.93;;;12.50;99.90;;;;;;4987002;28;20176;-83
2021/08/10 01:52:41;;;;;;;0.98;0.75;;;12.40;99.90;;;;;;4988800;28;20180;-84
2021/08/10 01:55:09;;;;;;;1.10;1.00;;;12.40;99.90;;;;;;4988471;28;20189;-83
2021/08/10 01:57:35;;;;;;;2.15;0.93;;;12.40;99.90;;;;;;4989683;28;20196;-81
2021/08/10 02:00:01;;;;;;;2.15;0.80;;;12.30;99.90;;;;;;4982865;28;20192;-80
2021/08/10 02:02:28;;;;;;;1.52;0.90;;;12.30;99.90;;;;;;4986511;28;20206;-84
2021/08/10 02:04:54;;;;;;;1.48;1.05;;;12.30;99.90;;;;;;4988249;28;21183;-84
2021/08/10 02:07:19;;;;;;;1.30;0.90;;;12.30;99.90;;;;;;4988149;28;20271;-80
2021/08/10 02:09:46;;;;;;;0.98;0.98;;;12.40;99.90;;;;;;4988529;28;20188;-85
2021/08/10 02:12:12;;;;;;;0.85;0.70;;;12.40;99.90;;;;;;4989720;28;20670;-83
2021/08/10 02:14:39;;;;;;;0.60;0.60;;;12.50;99.90;;;;;;4988857;28;20192;-83
2021/08/10 02:17:07;;;;;;;2.45;1.23;;;12.60;99.90;;;;;;4989280;28;20674;-84
2021/08/10 02:19:34;;;;;;;1.02;0.80;;;12.60;99.90;;;;;;4988355;28;20186;-81
2021/08/10 02:22:09;;;;;;;1.20;1.10;;;12.70;99.90;;;;;;4987788;28;20452;-83
2021/08/10 02:24:40;;;;;;;0.73;0.65;;;12.80;99.90;;;;;;4987657;28;20207;-84
2021/08/10 02:27:09;;;;;;;0.75;0.75;;;12.80;99.90;;;;;;4987258;28;20223;-82
2021/08/10 02:29:41;;;;;;;1.60;0.73;;;13.00;99.90;;;;;;4988730;28;20192;-83
2021/08/10 02:32:10;;;;;;;1.05;0.80;;;13.00;99.90;;;;;;4987761;28;20235;-84
2021/08/10 02:34:38;;;;;;;0.80;0.73;;;13.00;99.90;;;;;;4987395;28;20188;-84
2021/08/10 02:37:05;;;;;;;1.00;0.90;;;13.10;99.90;;;;;;4988907;28;20206;-82
2021/08/10 02:39:34;;;;;;;1.17;0.73;;;13.20;99.90;;;;;;4987922;28;20238;-83
2021/08/10 02:42:01;;;;;;;1.55;1.00;;;13.10;99.90;;;;;;4988306;28;20184;-80
2021/08/10 02:44:28;;;;;;;0.80;0.80;;;13.20;99.90;;;;;;4989120;28;20287;-81
2021/08/10 02:46:53;;;;;;;1.27;1.00;;;13.20;99.90;;;;;;4988664;28;20247;-81
2021/08/10 02:49:19;;;;;;;1.88;0.75;;;13.10;99.90;;;;;;4986602;28;20640;-84
2021/08/10 02:51:45;;;;;;;1.25;1.00;;;13.10;99.90;;;;;;4987424;28;20734;-83
2021/08/10 02:54:11;;;;;;;0.70;0.70;;;13.10;99.90;;;;;;4987068;28;20286;-80
2021/08/10 02:56:47;;;;;;;1.05;0.90;;;13.00;99.90;;;;;;4987335;28;20211;-84
2021/08/10 02:59:19;;;;;;;1.77;0.82;;;13.10;99.90;;;;;;4986761;28;20199;-81
2021/08/10 03:01:54;;;;;;;2.33;0.93;;;13.10;99.90;;;;;;4987317;28;20208;-80
2021/08/10 03:04:23;;;;;;;0.90;0.73;;;13.10;99.90;;;;;;4986609;28;20188;-82
2021/08/10 03:06:51;;;;;;;1.10;0.80;;;13.00;99.90;;;;;;4987845;28;20685;-82
2021/08/10 03:09:17;;;;;;;2.10;0.90;;;13.00;99.90;;;;;;5003332;28;20734;-81
2021/08/10 03:11:43;;;;;;;0.65;0.65;;;13.00;99.90;;;;;;4988614;28;20211;-83
2021/08/10 03:14:12;;;;;;;1.33;0.80;;;13.00;99.90;;;;;;4987310;28;20238;-81
2021/08/10 03:16:40;;;;;;;0.90;0.77;;;12.90;99.90;;;;;;4986780;28;20273;-84
2021/08/10 03:19:08;;;;;;;1.65;1.17;;;13.00;99.90;;;;;;4987927;28;20658;-83
2021/08/10 03:21:35;;;;;;;0.98;0.75;;;13.00;99.90;;;;;;5002802;28;20192;-81
2021/08/10 03:24:04;;;;;;;0.90;0.73;;;13.10;99.90;;;;;;4986271;28;20192;-84
2021/08/10 03:26:30;;;;;;;1.55;0.73;;;13.10;99.90;;;;;;4986669;28;20590;-82
2021/08/10 03:28:56;;;;;;;2.28;1.05;;;13.20;99.90;;;;;;4986003;28;20294;-82
2021/08/10 03:31:22;;;;;;;2.60;0.70;;;13.10;99.90;;;;;;4985987;28;20300;-83
2021/08/10 03:33:49;;;;;;;1.15;1.00;;;13.00;99.90;;;;;;5001968;28;20211;-81
2021/08/10 03:36:16;;;;;;;0.85;0.77;;;13.10;99.90;;;;;;4987054;28;20937;-84
2021/08/10 03:38:42;;;;;;;1.38;0.90;;;13.00;99.90;;;;;;4986396;28;20188;-81
2021/08/10 03:41:09;;;;;;;1.20;1.05;;;13.00;99.90;;;;;;4985858;28;20678;-83
2021/08/10 03:43:36;;;;;;;1.70;0.90;;;12.90;99.90;;;;;;5002596;28;20196;-83
2021/08/10 03:46:03;;;;;;;1.02;0.93;;;13.00;99.90;;;;;;5002105;28;20203;-81
2021/08/10 03:48:34;;;;;;;1.27;1.17;;;13.00;99.90;;;;;;4986632;28;20785;-83
2021/08/10 03:51:01;;;;;;;0.90;0.70;;;13.00;99.90;;;;;;4987626;28;20299;-82
2021/08/10 03:53:27;;;;;;;0.80;0.77;;;13.10;99.90;;;;;;4987425;28;20180;-81
2021/08/10 03:55:54;;;;;;;1.25;0.88;;;13.00;99.90;;;;;;4986729;28;20654;-82
2021/08/10 03:58:23;;;;;;;0.93;0.80;;;13.00;99.90;;;;;;4986225;28;20608;-83
2021/08/10 04:00:52;;;;;;;1.02;0.80;;;13.00;99.90;;;;;;4987868;28;20716;-81
2021/08/10 04:03:18;;;;;;;1.27;0.85;;;13.00;99.90;;;;;;4991242;28;20205;-80
2021/08/10 04:05:46;;;;;;;0.70;0.70;;;13.10;99.90;;;;;;5004730;28;20284;-80
2021/08/10 04:08:14;;;;;;;0.50;0.50;;;13.20;99.90;;;;;;4990022;28;20274;-80
2021/08/10 04:10:42;;;;;;;1.85;1.10;;;13.20;99.90;;;;;;4987629;28;20239;-81
2021/08/10 04:13:09;;;;;;;2.83;0.98;;;13.40;99.90;;;;;;5004321;28;20738;-80
2021/08/10 04:15:40;;;;;;;0.85;0.75;;;13.50;99.90;;;;;;5003530;28;20662;-79
2021/08/10 04:18:06;;;;;;;1.52;1.27;;;13.60;99.90;;;;;;4988121;28;21142;-80
2021/08/10 04:20:32;;;;;;;0.73;0.70;;;13.60;99.90;;;;;;4987758;28;20280;-81
2021/08/10 04:22:57;;;;;;;2.05;0.90;;;13.60;99.90;;;;;;4989158;28;20278;-80
2021/08/10 04:25:23;;;;;;;1.23;0.98;;;13.60;99.90;;;;;;4987692;28;20534;-80
2021/08/10 04:27:48;;;;;;;2.70;1.10;;;13.60;99.90;;;;;;4987736;28;20292;-80
2021/08/10 04:30:14;;;;;;;0.75;0.63;;;13.70;99.90;;;;;;4987678;28;20187;-82
2021/08/10 04:32:40;;;;;;;2.13;1.33;;;13.70;99.90;;;;;;4988124;28;20184;-80
2021/08/10 04:35:06;;;;;;;1.50;0.98;;;13.70;99.90;;;;;;4988593;28;20636;-81
2021/08/10 04:37:31;;;;;;;0.90;0.90;;;13.80;99.90;;;;;;4987306;28;20227;-82
2021/08/10 04:39:57;;;;;;;1.48;1.02;;;13.80;99.90;;;;;;4988798;28;20188;-80
2021/08/10 04:42:22;;;;;;;1.52;0.80;;;13.80;99.90;;;;;;4987543;28;20192;-80
2021/08/10 04:44:48;;;;;;;1.17;0.70;;;13.90;99.90;;;;;;4986825;28;20192;-81
2021/08/10 04:47:13;;;;;;;3.00;0.93;;;14.00;99.90;;;;;;4989841;28;20212;-80
2021/08/10 04:49:39;;;;;;;1.20;0.90;;;14.00;99.90;;;;;;4987488;28;20250;-81
2021/08/10 04:52:05;;;;;;;1.65;1.10;;;14.10;99.90;;;;;;4987176;28;20246;-80
2021/08/10 04:54:33;;;;;;;0.75;0.75;;;14.10;99.90;;;;;;4986836;28;20243;-81
2021/08/10 04:56:59;;;;;;;1.48;1.20;;;14.10;99.90;;;;;;4988539;28;20255;-79
2021/08/10 04:59:25;;;;;;;1.25;1.10;;;14.10;99.90;;;;;;4987325;28;20188;-82
2021/08/10 05:01:50;;;;;;;2.75;1.10;;;14.20;99.90;;;;;;4996134;28;20219;-83
2021/08/10 05:04:16;;;;;;;1.10;1.00;;;14.30;99.90;;;;;;4986714;28;20274;-83
2021/08/10 05:06:42;;;;;;;0.98;0.93;;;14.30;99.90;;;;;;4988075;28;20262;-81
2021/08/10 05:09:07;;;;;;;0.90;0.90;;;14.50;99.90;;;;;;4987177;28;20724;-80
2021/08/10 05:11:34;;;;;;;2.10;1.23;;;14.50;99.90;;;;;;4987706;28;20215;-82
2021/08/10 05:13:59;;;;;;;1.00;0.90;;;14.60;99.90;;;;;;4987938;28;20184;-84
2021/08/10 05:16:25;;;;;;;0.85;0.80;;;14.80;99.90;;;;;;4987332;28;20271;-81
2021/08/10 05:18:50;;;;;;;1.35;0.90;;;15.00;99.90;;;;;;4987464;28;20202;-81
2021/08/10 05:21:17;;;;;;;1.70;0.60;;;15.10;99.90;;;;;;4986774;28;20223;-81
2021/08/10 05:23:42;;;;;;;1.67;0.93;;;15.10;99.90;;;;;;4987301;28;20261;-80
2021/08/10 05:26:08;;;;;;;1.75;1.02;;;15.20;99.90;;;;;;4987030;28;20572;-81
2021/08/10 05:28:33;;;;;;;1.60;0.90;;;15.40;99.90;;;;;;4987506;28;20220;-80
2021/08/10 05:30:59;;;;;;;0.90;0.90;;;15.50;99.90;;;;;;4987594;28;20212;-82
2021/08/10 05:33:24;;;;;;;1.00;0.80;;;15.70;99.90;;;;;;4987805;28;20267;-81
2021/08/10 05:35:50;;;;;;;0.85;0.85;;;15.80;99.90;;;;;;4987127;28;20180;-83
2021/08/10 05:38:16;;;;;;;0.80;0.80;;;15.90;99.90;;;;;;4987277;28;20742;-83
2021/08/10 05:40:41;;;;;;;0.65;0.52;;;16.00;99.90;;;;;;4987655;28;20180;-81
2021/08/10 05:43:07;;;;;;;3.38;1.02;;;16.10;99.90;;;;;;4988711;28;20188;-81
2021/08/10 05:45:32;;;;;;;0.93;0.77;;;16.20;99.90;;;;;;4988052;28;20226;-81
2021/08/10 05:47:58;;;;;;;1.33;0.90;;;16.30;99.90;;;;;;4988346;28;20835;-81
2021/08/10 05:50:24;;;;;;;0.57;0.57;;;16.40;99.90;;;;;;4988121;28;20266;-81
2021/08/10 05:52:49;;;;;;;1.23;0.93;;;16.50;99.90;;;;;;4988650;28;20293;-83
2021/08/10 05:55:15;;;;;;;0.65;0.60;;;16.60;99.90;;;;;;5002173;28;20181;-81
2021/08/10 05:57:41;;;;;;;0.80;0.68;;;16.70;99.90;;;;;;4987864;28;20199;-81
2021/08/10 06:00:07;;;;;;;0.77;0.77;;;17.00;99.90;;;;;;4988024;28;20188;-80
2021/08/10 06:02:35;;;;;;;0.63;0.63;;;17.10;99.90;;;;;;4986963;28;20192;-84
2021/08/10 06:05:00;;;;;;;1.33;0.90;;;17.30;99.90;;;;;;4986172;28;20187;-81
2021/08/10 06:07:26;;;;;;;1.65;0.80;;;17.40;99.90;;;;;;4988153;28;20219;-81
2021/08/10 06:09:51;;;;;;;0.82;0.77;;;17.50;99.90;;;;;;4986504;28;20193;-82
2021/08/10 06:12:17;;;;;;;1.30;1.00;;;17.40;99.90;;;;;;4988891;28;20746;-85
2021/08/10 06:14:42;;;;;;;1.00;0.85;;;17.30;99.90;;;;;;4985996;28;20197;-84
2021/08/10 06:17:08;;;;;;;0.65;0.65;;;17.20;99.90;;;;;;4986702;28;20211;-80
2021/08/10 06:19:34;;;;;;;0.80;0.60;;;17.10;99.90;;;;;;4986188;28;20188;-84
2021/08/10 06:21:59;;;;;;;1.20;0.90;;;17.10;99.90;;;;;;4986258;28;20192;-82
2021/08/10 06:24:27;;;;;;;0.70;0.70;;;17.00;99.90;;;;;;4985868;28;20672;-81
2021/08/10 06:26:53;;;;;;;0.70;0.60;;;17.10;99.90;;;;;;4985949;28;20690;-81
2021/08/10 06:29:19;;;;;;;1.58;1.00;;;17.10;99.90;;;;;;4979372;28;20188;-81
2021/08/10 06:31:44;;;;;;;1.08;0.82;;;17.20;99.90;;;;;;4985714;28;20204;-80
2021/08/10 06:34:10;;;;;;;2.50;0.85;;;17.30;99.90;;;;;;4985858;28;20186;-80
2021/08/10 06:36:36;;;;;;;0.95;0.80;;;17.40;99.90;;;;;;4987275;28;20212;-83
2021/08/10 06:39:02;;;;;;;1.60;0.88;;;17.50;99.90;;;;;;4986104;28;20176;-80
2021/08/10 06:41:27;;;;;;;1.35;0.70;;;17.50;99.90;;;;;;4986546;28;20192;-84
2021/08/10 06:43:53;;;;;;;1.40;0.70;;;17.60;99.90;;;;;;4987300;28;20192;-80
2021/08/10 06:46:19;;;;;;;1.30;0.60;;;17.70;99.90;;;;;;4985971;28;20246;-81
2021/08/10 06:48:44;;;;;;;0.77;0.70;;;17.90;99.90;;;;;;4986111;28;20184;-81
2021/08/10 06:51:10;;;;;;;0.95;0.90;;;17.90;99.90;;;;;;4986301;28;20578;-81
2021/08/10 06:53:35;;;;;;;0.95;0.70;;;18.00;99.90;;;;;;4986488;28;20180;-79
2021/08/10 06:56:01;;;;;;;1.23;0.80;;;18.10;99.90;;;;;;4987372;28;20188;-79
2021/08/10 06:58:27;;;;;;;1.40;0.70;;;18.20;99.90;;;;;;4988692;28;20607;-79
2021/08/10 07:00:52;;;;;;;1.08;0.80;;;18.20;99.90;;;;;;4989754;28;20187;-79
2021/08/10 07:03:18;;;;;;;0.82;0.82;;;18.30;99.90;;;;;;4991051;28;20192;-79
2021/08/10 07:05:43;;;;;;;1.40;0.90;;;18.30;99.90;;;;;;4995350;28;20191;-79
2021/08/10 07:08:09;;;;;;;2.72;1.05;;;18.30;99.90;;;;;;4994544;28;20204;-80
2021/08/10 07:10:34;;;;;;;1.23;0.93;;;18.10;99.90;;;;;;4995074;28;20239;-80
2021/08/10 07:13:00;;;;;;;0.60;0.60;;;18.10;99.90;;;;;;4995205;28;20413;-80
2021/08/10 07:15:26;;;;;;;1.15;0.90;;;18.00;99.90;;;;;;4996222;28;20636;-79
2021/08/10 07:17:51;;;;;;;0.70;0.70;;;17.90;99.90;;;;;;4996111;28;20272;-80
2021/08/10 07:20:17;;;;;;;1.20;0.70;;;17.90;99.90;;;;;;4994603;28;20184;-79
2021/08/10 07:22:42;;;;;;;1.50;0.85;;;17.90;99.90;;;;;;4993592;28;20188;-80
2021/08/10 07:25:08;;;;;;;0.80;0.50;;;18.00;99.90;;;;;;4994559;28;20267;-79
2021/08/10 07:27:34;;;;;;;1.58;0.80;;;18.10;99.90;;;;;;4996232;28;20223;-80
2021/08/10 07:30:01;;;;;;;0.57;0.57;;;18.30;99.90;;;;;;4994869;28;20185;-79
2021/08/10 07:32:27;;;;;;;0.80;0.73;;;18.40;99.90;;;;;;4994660;28;20707;-79
2021/08/10 07:34:52;;;;;;;0.70;0.60;;;18.50;99.90;;;;;;4997719;28;20180;-79
2021/08/10 07:37:18;;;;;;;1.30;0.60;;;18.70;99.90;;;;;;4999269;28;20208;-81
2021/08/10 07:39:43;;;;;;;2.47;0.90;;;18.90;99.90;;;;;;4997051;28;20195;-81
2021/08/10 07:42:09;;;;;;;1.35;0.65;;;19.20;99.90;;;;;;4998923;28;20189;-81
2021/08/10 07:44:34;;;;;;;0.43;0.43;;;19.40;99.90;;;;;;4998270;28;20299;-80
2021/08/10 07:47:02;;;;;;;0.95;0.80;;;19.80;99.90;;;;;;4999098;28;20208;-81
2021/08/10 07:49:28;;;;;;;0.57;0.50;;;20.00;99.90;;;;;;4999234;28;20188;-80
2021/08/10 07:51:53;;;;;;;1.23;0.75;;;20.00;99.90;;;;;;4998655;28;20216;-81
2021/08/10 07:54:19;;;;;;;1.00;0.75;;;20.20;99.90;;;;;;4999089;28;20295;-81
2021/08/10 07:56:45;;;;;;;1.08;0.60;;;20.30;99.90;;;;;;4997119;28;20204;-81
2021/08/10 07:59:10;;;;;;;0.55;0.55;;;20.30;99.90;;;;;;4997767;28;20191;-80
2021/08/10 08:01:36;;;;;;;0.50;0.50;;;20.50;99.90;;;;;;4998537;28;20180;-80
2021/08/10 08:04:01;;;;;;;2.25;0.60;;;20.60;99.90;;;;;;4996602;28;20564;-79
2021/08/10 08:06:27;;;;;;;0.45;0.40;;;20.70;99.90;;;;;;4989627;28;20433;-81
2021/08/10 08:08:52;;;;;;;1.35;0.60;;;20.80;99.90;;;;;;4994982;28;20218;-81
2021/08/10 08:11:18;;;;;;;1.25;0.55;;;20.70;99.90;;;;;;4997506;28;20243;-80
2021/08/10 08:13:44;;;;;;;0.73;0.73;;;20.60;99.90;;;;;;4999572;28;20267;-80
2021/08/10 08:16:09;;;;;;;1.35;0.77;;;20.70;99.90;;;;;;4999429;28;20214;-81
2021/08/10 08:18:35;;;;;;;1.52;0.50;;;20.90;99.90;;;;;;4997601;28;20227;-81
2021/08/10 08:21:01;;;;;;;0.65;0.55;;;21.10;99.90;;;;;;4996621;28;20192;-81
2021/08/10 08:23:28;;;;;;;1.20;0.70;;;21.00;99.90;;;;;;5014258;28;20188;-81
2021/08/10 08:25:53;;;;;;;1.25;0.75;;;21.10;99.90;;;;;;4998849;28;20212;-81
2021/08/10 08:28:20;;;;;;;0.80;0.80;;;21.10;99.90;;;;;;4991513;28;20227;-80
2021/08/10 08:30:46;;;;;;;0.95;0.70;;;21.30;99.90;;;;;;4996766;28;20579;-81
2021/08/10 08:33:12;;;;;;;1.83;0.70;;;21.50;99.90;;;;;;4993066;28;20584;-81
2021/08/10 08:35:38;;;;;;;0.90;0.75;;;21.60;99.90;;;;;;4993915;28;20181;-81
2021/08/10 08:38:06;;;;;;;0.52;0.50;;;21.60;99.90;;;;;;4995349;28;20204;-81
2021/08/10 08:40:32;;;;;;;0.93;0.60;;;21.50;99.90;;;;;;4997176;28;20284;-80
2021/08/10 08:42:57;;;;;;;0.90;0.60;;;21.50;99.90;;;;;;4996156;28;20204;-81
2021/08/10 08:45:23;;;;;;;2.25;0.60;;;21.40;99.90;;;;;;4997189;28;20243;-81
2021/08/10 08:47:52;;;;;;;0.75;0.50;;;21.30;99.90;;;;;;4992170;28;20196;-80
2021/08/10 08:50:20;;;;;;;2.17;0.73;;;21.10;99.90;;;;;;4995374;28;20188;-81
2021/08/10 08:52:52;;;;;;;1.27;0.70;;;20.90;99.90;;;;;;4995955;28;20199;-80
2021/08/10 08:55:21;;;;;;;1.10;0.55;;;20.80;99.90;;;;;;4998313;28;20194;-81
2021/08/10 08:57:47;;;;;;;2.00;0.75;;;20.70;99.90;;;;;;4995635;28;20235;-81
2021/08/10 09:00:15;;;;;;;0.98;0.80;;;20.80;99.90;;;;;;4994735;28;20237;-80
2021/08/10 09:02:43;;;;;;;0.60;0.60;;;20.70;99.90;;;;;;4996159;28;20608;-80
2021/08/10 09:05:10;;;;;;;1.00;0.90;;;20.70;99.90;;;;;;4993860;28;20611;-82
2021/08/10 09:07:36;;;;;;;1.10;1.00;;;20.60;99.90;;;;;;4996252;28;20212;-80
2021/08/10 09:10:09;;;;;;;1.60;0.70;;;20.50;99.90;;;;;;4990115;28;20468;-80
2021/08/10 09:13:01;;;;;;;0.60;0.60;;;20.40;99.90;;;;;;4994424;28;20250;-81
2021/08/10 09:15:44;;;;;;;3.67;1.20;;;20.60;99.90;;;;;;4988327;28;20184;-81
2021/08/10 09:18:18;;;;;;;1.25;0.75;;;21.00;99.90;;;;;;4991064;28;20241;-81
2021/08/10 09:21:09;;;;;;;0.82;0.63;;;21.60;99.90;;;;;;4992621;28;20191;-81
2021/08/10 09:23:41;;;;;;;1.13;0.70;;;21.80;99.90;;;;;;4991244;28;20180;-84
2021/08/10 09:26:08;;;;;;;1.42;0.90;;;21.90;99.90;;;;;;4988502;28;20216;-81
2021/08/10 09:28:35;;;;;;;1.67;0.80;;;22.00;99.90;;;;;;5015966;23;20304;-75
2021/08/10 09:31:38;;;;;;;1.85;0.88;;;22.20;99.90;;;;;;4967247;28;20231;-76
2021/08/10 09:34:08;;;;;;;1.73;0.77;;;22.50;99.90;;;;;;4967206;28;20184;-73
2021/08/10 09:36:35;;;;;;;1.63;1.02;;;22.70;99.90;;;;;;4967953;28;20213;-74
2021/08/10 09:39:02;;;;;;;1.50;0.93;;;22.50;99.90;;;;;;4967504;28;20196;-77
2021/08/10 09:41:28;;;;;;;2.85;1.20;;;22.60;99.90;;;;;;4965810;28;21005;-79
2021/08/10 09:44:17;;;;;;;1.35;0.88;;;22.70;99.90;;;;;;4965444;28;20189;-75
2021/08/10 09:46:48;;;;;;;0.70;0.70;;;22.80;99.90;;;;;;4967628;28;20251;-76
2021/08/10 09:49:14;;;;;;;1.13;0.93;;;23.00;99.90;;;;;;4967796;28;20185;-77
2021/08/10 09:51:43;;;;;;;2.15;0.80;;;23.20;99.90;;;;;;4966976;28;20248;-75
2021/08/10 09:54:14;;;;;;;1.27;1.05;;;23.20;99.90;;;;;;4966434;28;20177;-76
2021/08/10 09:56:58;;;;;;;2.15;1.00;;;23.00;99.90;;;;;;4966609;28;20212;-75
2021/08/10 09:59:40;;;;;;;1.33;1.00;;;22.60;99.90;;;;;;4965642;28;20379;-77
2021/08/10 10:02:16;;;;;;;1.17;0.90;;;22.50;99.90;;;;;;4966857;28;20195;-74
2021/08/10 10:04:49;;;;;;;2.13;1.20;;;22.30;99.90;;;;;;4966441;28;20223;-78
2021/08/10 10:07:15;;;;;;;1.67;0.90;;;22.60;99.90;;;;;;4965282;28;20223;-77
2021/08/10 10:09:41;;;;;;;1.98;0.95;;;23.00;99.90;;;;;;4966916;28;20184;-76
2021/08/10 10:12:08;;;;;;;1.80;1.20;;;23.40;99.90;;;;;;4965617;28;20208;-76
2021/08/10 10:14:35;;;;;;;1.38;0.95;;;23.50;99.90;;;;;;4966000;28;20189;-75
2021/08/10 10:17:02;;;;;;;1.73;1.27;;;23.60;99.90;;;;;;4966693;28;20304;-81
2021/08/10 10:19:29;;;;;;;1.65;1.00;;;23.80;99.90;;;;;;4965100;28;20192;-76
2021/08/10 10:21:58;;;;;;;1.45;1.00;;;23.70;99.90;;;;;;4965837;28;20264;-77
2021/08/10 10:24:25;;;;;;;1.17;1.05;;;23.60;99.90;;;;;;4965905;28;20224;-76
2021/08/10 10:26:58;;;;;;;2.42;1.33;;;23.90;99.90;;;;;;4966773;28;20602;-77
2021/08/10 10:29:26;;;;;;;3.05;1.33;;;24.20;99.90;;;;;;4967468;28;20189;-76
2021/08/10 10:31:51;;;;;;;1.67;1.30;;;24.20;99.90;;;;;;4967113;28;20672;-76
2021/08/10 10:34:17;;;;;;;2.30;1.60;;;24.30;99.90;;;;;;4966185;28;20189;-75
2021/08/10 10:36:45;;;;;;;2.17;1.50;;;24.30;99.90;;;;;;4966790;28;20204;-74
2021/08/10 10:39:22;;;;;;;3.45;1.40;;;24.10;99.10;;;;;;4965450;28;20220;-75
2021/08/10 10:41:48;;;;;;;1.55;1.10;;;24.30;99.50;;;;;;4966957;28;20257;-76
2021/08/10 10:44:14;;;;;;;2.00;1.35;;;24.70;98.80;;;;;;4966768;28;20293;-76
2021/08/10 10:46:40;;;;;;;1.27;1.02;;;24.60;97.50;;;;;;4966327;28;20219;-75
2021/08/10 10:49:08;;;;;;;1.95;1.23;;;24.60;98.10;;;;;;4966620;28;20182;-75
2021/08/10 10:51:38;;;;;;;2.28;1.35;;;24.30;99.50;;;;;;4966424;28;20204;-75
2021/08/10 10:54:25;;;;;;;2.15;1.25;;;24.30;99.90;;;;;;4965324;28;20781;-77
2021/08/10 10:56:53;;;;;;;2.03;1.55;;;24.40;99.90;;;;;;4965998;28;20231;-77
2021/08/10 10:59:29;;;;;;;1.77;1.38;;;24.60;99.90;;;;;;4966175;28;20223;-76
2021/08/10 11:02:13;;;;;;;2.42;1.30;;;24.80;98.70;;;;;;4965241;28;20216;-75
2021/08/10 11:04:59;;;;;;;1.73;1.30;;;24.80;97.60;;;;;;4966473;28;20191;-77
2021/08/10 11:07:35;;;;;;;2.10;1.15;;;24.70;99.90;;;;;;4966568;28;20212;-76
2021/08/10 11:10:01;;;;;;;2.83;1.52;;;24.80;99.00;;;;;;4983871;28;20180;-76
2021/08/10 11:12:53;;;;;;;1.95;1.02;;;25.00;98.30;;;;;;4968355;28;20216;-76
2021/08/10 11:18:09;;;;;;;2.38;1.50;;;25.50;99.40;;;;;;5626032;23;20242;-81
2021/08/10 11:20:38;;;;;;;2.30;1.15;;;25.70;97.80;;;;;;4994761;28;20191;-81
2021/08/10 11:23:20;;;;;;;2.33;1.30;;;25.70;97.00;;;;;;4995811;28;20583;-82
2021/08/10 11:25:49;;;;;;;1.98;1.33;;;25.90;96.80;;;;;;5010062;28;20173;-81
2021/08/10 11:28:30;;;;;;;2.13;1.30;;;25.90;96.70;;;;;;4986028;28;20200;-81
2021/08/10 11:31:02;;;;;;;1.98;1.25;;;25.60;97.20;;;;;;5000419;28;20213;-81
2021/08/10 11:33:37;;;;;;;2.05;0.93;;;25.20;98.10;;;;;;4984899;28;20551;-81
2021/08/10 11:36:12;;;;;;;1.70;1.20;;;25.30;99.90;;;;;;4982290;28;20261;-81
2021/08/10 11:39:04;;;;;;;1.65;1.20;;;25.40;99.20;;;;;;4976854;28;20211;-80
2021/08/10 11:41:35;;;;;;;1.83;1.40;;;25.40;99.90;;;;;;4984803;28;20192;-80
2021/08/10 11:44:28;;;;;;;4.65;1.40;;;25.40;99.90;;;;;;4976024;28;20241;-80
2021/08/10 11:46:54;;;;;;;1.35;1.02;;;26.00;99.90;;;;;;4978536;28;20216;-80
2021/08/10 11:49:22;;;;;;;1.95;1.40;;;25.70;99.70;;;;;;4973899;28;20562;-80
2021/08/10 11:51:49;;;;;;;3.28;1.52;;;25.60;99.90;;;;;;4971102;28;20282;-81
2021/08/10 11:54:18;;;;;;;1.88;1.38;;;25.20;99.90;;;;;;4970405;28;20186;-79
2021/08/10 11:56:56;;;;;;;1.65;1.40;;;25.60;99.90;;;;;;4991233;28;20275;-79
2021/08/10 11:59:26;;;;;;;2.65;1.38;;;25.80;99.30;;;;;;4974671;28;20663;-81
2021/08/10 12:01:55;;;;;;;1.20;1.00;;;25.80;98.90;;;;;;4978227;28;20189;-81
2021/08/10 12:04:23;;;;;;;1.75;1.20;;;25.70;99.00;;;;;;4998096;28;20564;-80
2021/08/10 12:06:51;;;;;;;1.77;1.30;;;25.30;98.60;;;;;;4978301;28;20705;-80
2021/08/10 12:09:18;;;;;;;1.70;1.20;;;24.80;98.90;;;;;;4976662;28;20348;-81
2021/08/10 12:11:50;;;;;;;1.83;1.27;;;24.40;99.50;;;;;;4973569;28;20581;-80
2021/08/10 12:14:19;;;;;;;1.63;1.10;;;24.10;99.90;;;;;;4976774;28;20189;-79
2021/08/10 12:17:02;;;;;;;1.95;1.45;;;24.00;99.90;;;;;;4976001;28;20204;-80
2021/08/10 12:19:35;;;;;;;2.38;1.23;;;24.20;99.90;;;;;;4983072;28;20259;-80
2021/08/10 12:22:06;;;;;;;2.88;1.45;;;24.10;99.90;;;;;;4974511;28;20180;-81
2021/08/10 12:24:38;;;;;;;1.33;1.20;;;24.00;99.90;;;;;;4974731;28;20184;-80
2021/08/10 12:27:05;;;;;;;1.83;1.30;;;24.10;99.90;;;;;;4975221;28;20216;-80
2021/08/10 12:29:32;;;;;;;1.60;1.10;;;24.30;99.90;;;;;;4972511;28;20729;-80
2021/08/10 12:31:59;;;;;;;1.42;1.30;;;24.70;99.90;;;;;;4973985;28;20622;-81
2021/08/10 12:34:36;;;;;;;1.85;1.40;;;24.90;99.90;;;;;;4980675;28;20546;-80
2021/08/10 12:37:03;;;;;;;2.35;1.55;;;24.80;99.90;;;;;;4977012;28;20216;-81
2021/08/10 12:39:29;;;;;;;1.48;1.20;;;24.70;99.90;;;;;;4980050;28;20692;-80
2021/08/10 12:42:00;;;;;;;1.60;1.17;;;24.80;99.90;;;;;;4978924;28;20199;-81
2021/08/10 12:44:27;;;;;;;2.30;1.67;;;25.10;99.90;;;;;;4973392;28;20466;-81
2021/08/10 12:46:58;;;;;;;1.35;1.05;;;25.50;99.90;;;;;;4970814;28;20787;-81
2021/08/10 12:49:37;;;;;;;2.05;1.40;;;25.30;99.80;;;;;;4973678;28;20602;-81
2021/08/10 12:52:11;;;;;;;1.52;1.17;;;25.30;99.70;;;;;;4969657;28;20208;-80
2021/08/10 12:54:56;;;;;;;2.42;1.48;;;25.20;99.60;;;;;;4981785;28;20580;-80
2021/08/10 12:57:26;;;;;;;2.72;1.45;;;25.00;99.90;;;;;;4987219;28;20215;-80
2021/08/10 12:59:57;;;;;;;2.35;1.35;;;24.60;99.90;;;;;;4971938;28;20188;-80